Richland, TX (76681)

12:46 PM CDT on September 05, 2015 (GMT -0500)
Campbell-Corsicana Municipal | | Change Station
CLOSE
Current Station
Airport
Location: Corsicana,
Elevation: 443 ft
Nearby Weather Stations

Elev 443 ft 32.03 °N, 96.40 °W | Updated 53 minutes ago

Mostly Cloudy
Mostly Cloudy
92 °F
Feels Like 97 °F
N
12
Wind Variable Wind from South
Gusts 20 mph

Today
High -- | Low -- °F
--% Chance of Precip.
Yesterday
High -- | Low -- °F
Precip. -- in
7:03 AM 7:44 PM
Waning Gibbous, 46% visible
Pressure 30.03 in
Visibility 10.0 miles
Clouds Few 3600 ft
Heat Index 97 °F
Dew Point 70 °F
Humidity 48%
Rainfall 0.00 in
Snow Depth Not available.
UV 8 out of 12
Pollen 9.80 out of 12
Air Quality Not available.
Flu Activity Not available.
METAR KCRS 051653Z AUTO 18010G17KT 10SM FEW036 33/21 A3005 RMK AO2 SLP168 T03330211
Pressure 30.03 in
Visibility 10.0 miles
Clouds Few 3600 ft
Heat Index 97 °F
Dew Point 70 °F
Humidity 48%
Rainfall 0.00 in
Snow Depth Not available.
UV 8 out of 12
Pollen 9.80 out of 12
Air Quality Not available.
Flu Activity Not available.
METAR KCRS 051653Z AUTO 18010G17KT 10SM FEW036 33/21 A3005 RMK AO2 SLP168 T03330211
Nowcast | as of 11:57 am CDT on September 5, 2015

Isolated showers will continue over the next few hours mainly for areas along and southeast of a Killeen to Waco to Canton line. A few rumbles of thunder will also be possible. The main hazards with thunderstorms...should they develop...will be gusty winds and occasional cloud to ground lightning. Rain amounts should remain light with totals generally under one quarter of an inch. Otherwise...hot conditions will continue over the next several hours with temperatures in the low to mid 90s.

×

10-Day Weather Forecast

×

Almanac

Astronomy

Sep. 05, 2015 Rise Set
Actual Time
Civil Twilight
Nautical Twilight
Astronomical Twilight
Moon
Length of Visible Light
Length of Day
Tomorrow will be .
, % of the Moon is Illuminated

Today's Extremes

State Highs State Lows

Community

WunderPhotos

Upload Photos

1,852,508 photos uploaded!

WunderBlogs® & News

Nearby

Air Quality

  Air Quality AQ Index Pollutant
Not available.

Snow Depth

Station Depth Elevation

Earthquake Activity

City Distance Mag. Time & Date
Minimum magnitude displayed is 2.5.

Coastal Water Temperatures

Place Temperature

Stations

Nearby Weather Stations

Station Location Temp. Windchill Dew Point Humidity Wind Precip. Elev Updated Type